Weather at Ithaca Tompkins Regional Airport

Public forecast

Using degrees Fahrenheit for public forecast. Weather courtesy of forecast.io.

Current aviation weather report (METAR) for Ithaca Tompkins Regional Airport

Retrieved 2020/11/25 03:56 UTC (37 minutes ago):

KITH 250356Z AUTO 12009KT 10SM FEW070 SCT100 02/M04 A3027 RMK AO2 PRESFR SLP260 T00171044 400281017 PNO

Aviation forecast (TAF) for Ithaca Tompkins Regional Airport

Retrieved 2020-11-25 00:22 UTC (4 hours ago):

TAF KITH 242320Z 2500/2524 VRB03KT P6SM BKN200 FM250600 15009KT P6SM OVC045 FM250700 16010G18KT P6SM OVC060 FM252000 17010G18KT P6SM OVC045 FM252100 17010G18KT P6SM -RA OVC035